sensor_id;sensor_type;location;lat;lon;timestamp;P1;durP1;ratioP1;P2;durP2;ratioP2
16189;SDS011;41754;51.498;7.540;2023-03-13T00:01:39;13.43;;;3.38;;
16189;SDS011;41754;51.498;7.540;2023-03-13T00:04:08;15.65;;;4.18;;
16189;SDS011;41754;51.498;7.540;2023-03-13T00:06:37;17.08;;;4.43;;
16189;SDS011;41754;51.498;7.540;2023-03-13T00:09:06;17.20;;;3.60;;
16189;SDS011;41754;51.498;7.540;2023-03-13T00:11:35;15.75;;;4.82;;
16189;SDS011;41754;51.498;7.540;2023-03-13T00:14:03;13.45;;;3.92;;
16189;SDS011;41754;51.498;7.540;2023-03-13T00:16:32;17.23;;;4.30;;
16189;SDS011;41754;51.498;7.540;2023-03-13T00:19:04;14.73;;;3.83;;
16189;SDS011;41754;51.498;7.540;2023-03-13T00:21:33;13.35;;;3.85;;
16189;SDS011;41754;51.498;7.540;2023-03-13T00:24:03;12.80;;;3.47;;
16189;SDS011;41754;51.498;7.540;2023-03-13T00:26:31;12.85;;;3.72;;
16189;SDS011;41754;51.498;7.540;2023-03-13T00:28:58;17.80;;;3.92;;
16189;SDS011;41754;51.498;7.540;2023-03-13T00:31:27;13.68;;;3.97;;
16189;SDS011;41754;51.498;7.540;2023-03-13T00:33:57;14.80;;;3.53;;
16189;SDS011;41754;51.498;7.540;2023-03-13T00:36:28;12.75;;;3.88;;
16189;SDS011;41754;51.498;7.540;2023-03-13T00:38:57;9.93;;;3.33;;
16189;SDS011;41754;51.498;7.540;2023-03-13T00:41:26;13.90;;;3.50;;
16189;SDS011;41754;51.498;7.540;2023-03-13T00:43:56;13.35;;;3.60;;
16189;SDS011;41754;51.498;7.540;2023-03-13T00:46:25;15.35;;;3.75;;
16189;SDS011;41754;51.498;7.540;2023-03-13T00:48:54;12.10;;;4.38;;
16189;SDS011;41754;51.498;7.540;2023-03-13T00:51:23;14.48;;;3.80;;
16189;SDS011;41754;51.498;7.540;2023-03-13T00:53:53;15.38;;;3.25;;
16189;SDS011;41754;51.498;7.540;2023-03-13T00:56:22;16.27;;;3.90;;
16189;SDS011;41754;51.498;7.540;2023-03-13T00:58:50;17.10;;;3.85;;
16189;SDS011;41754;51.498;7.540;2023-03-13T01:01:18;14.85;;;3.63;;
16189;SDS011;41754;51.498;7.540;2023-03-13T01:03:48;19.10;;;3.88;;
16189;SDS011;41754;51.498;7.540;2023-03-13T01:06:18;13.07;;;4.55;;
16189;SDS011;41754;51.498;7.540;2023-03-13T01:08:48;15.27;;;3.78;;
16189;SDS011;41754;51.498;7.540;2023-03-13T01:11:17;16.85;;;4.40;;
16189;SDS011;41754;51.498;7.540;2023-03-13T01:13:48;13.10;;;3.45;;
16189;SDS011;41754;51.498;7.540;2023-03-13T01:16:18;13.75;;;4.13;;
16189;SDS011;41754;51.498;7.540;2023-03-13T01:18:47;16.58;;;4.15;;
16189;SDS011;41754;51.498;7.540;2023-03-13T01:21:17;15.18;;;4.18;;
16189;SDS011;41754;51.498;7.540;2023-03-13T01:23:46;15.10;;;4.28;;
16189;SDS011;41754;51.498;7.540;2023-03-13T01:26:16;16.20;;;4.40;;
16189;SDS011;41754;51.498;7.540;2023-03-13T01:28:44;16.77;;;3.70;;
16189;SDS011;41754;51.498;7.540;2023-03-13T01:31:15;14.10;;;3.80;;
16189;SDS011;41754;51.498;7.540;2023-03-13T01:33:46;12.57;;;3.08;;
16189;SDS011;41754;51.498;7.540;2023-03-13T01:36:15;14.13;;;3.78;;
16189;SDS011;41754;51.498;7.540;2023-03-13T01:38:46;14.27;;;3.97;;
16189;SDS011;41754;51.498;7.540;2023-03-13T01:41:16;11.70;;;3.43;;
16189;SDS011;41754;51.498;7.540;2023-03-13T01:43:45;14.15;;;4.05;;
16189;SDS011;41754;51.498;7.540;2023-03-13T01:46:14;22.23;;;7.97;;
16189;SDS011;41754;51.498;7.540;2023-03-13T01:49:00;14.65;;;4.53;;
16189;SDS011;41754;51.498;7.540;2023-03-13T01:51:41;15.75;;;4.85;;
16189;SDS011;41754;51.498;7.540;2023-03-13T01:54:12;16.42;;;3.88;;
16189;SDS011;41754;51.498;7.540;2023-03-13T01:56:46;17.77;;;4.07;;
16189;SDS011;41754;51.498;7.540;2023-03-13T01:59:17;14.10;;;3.97;;
16189;SDS011;41754;51.498;7.540;2023-03-13T02:01:49;16.88;;;4.10;;
16189;SDS011;41754;51.498;7.540;2023-03-13T02:04:19;14.85;;;4.28;;
16189;SDS011;41754;51.498;7.540;2023-03-13T02:06:51;14.30;;;3.60;;
16189;SDS011;41754;51.498;7.540;2023-03-13T02:09:24;13.67;;;3.60;;
16189;SDS011;41754;51.498;7.540;2023-03-13T02:12:00;13.07;;;3.67;;
16189;SDS011;41754;51.498;7.540;2023-03-13T02:14:31;13.23;;;4.17;;
16189;SDS011;41754;51.498;7.540;2023-03-13T02:17:03;12.03;;;3.53;;
16189;SDS011;41754;51.498;7.540;2023-03-13T02:19:34;18.13;;;3.93;;
16189;SDS011;41754;51.498;7.540;2023-03-13T02:22:07;13.20;;;4.13;;
16189;SDS011;41754;51.498;7.540;2023-03-13T02:24:44;15.80;;;4.17;;
16189;SDS011;41754;51.498;7.540;2023-03-13T02:27:22;16.67;;;4.43;;
16189;SDS011;41754;51.498;7.540;2023-03-13T02:29:51;14.77;;;4.13;;
16189;SDS011;41754;51.498;7.540;2023-03-13T02:32:19;18.57;;;5.00;;
16189;SDS011;41754;51.498;7.540;2023-03-13T02:34:48;13.03;;;4.23;;
16189;SDS011;41754;51.498;7.540;2023-03-13T02:37:20;13.17;;;4.27;;
16189;SDS011;41754;51.498;7.540;2023-03-13T02:39:51;17.03;;;4.43;;
16189;SDS011;41754;51.498;7.540;2023-03-13T02:42:20;22.97;;;5.37;;
16189;SDS011;41754;51.498;7.540;2023-03-13T02:44:51;14.43;;;4.17;;
16189;SDS011;41754;51.498;7.540;2023-03-13T02:47:19;14.83;;;4.63;;
16189;SDS011;41754;51.498;7.540;2023-03-13T02:49:49;18.27;;;5.03;;
16189;SDS011;41754;51.498;7.540;2023-03-13T02:52:18;14.13;;;4.97;;
16189;SDS011;41754;51.498;7.540;2023-03-13T02:54:50;19.03;;;4.53;;
16189;SDS011;41754;51.498;7.540;2023-03-13T02:57:23;13.13;;;4.93;;
16189;SDS011;41754;51.498;7.540;2023-03-13T02:59:51;11.43;;;3.70;;
16189;SDS011;41754;51.498;7.540;2023-03-13T03:02:18;12.77;;;3.77;;
16189;SDS011;41754;51.498;7.540;2023-03-13T03:04:46;12.40;;;3.03;;
16189;SDS011;41754;51.498;7.540;2023-03-13T03:07:14;12.10;;;3.30;;
16189;SDS011;41754;51.498;7.540;2023-03-13T03:09:42;8.50;;;3.30;;
16189;SDS011;41754;51.498;7.540;2023-03-13T03:12:16;9.60;;;3.43;;
16189;SDS011;41754;51.498;7.540;2023-03-13T03:14:45;13.17;;;3.43;;
16189;SDS011;41754;51.498;7.540;2023-03-13T03:17:14;11.23;;;3.13;;
16189;SDS011;41754;51.498;7.540;2023-03-13T03:19:42;10.97;;;2.80;;
16189;SDS011;41754;51.498;7.540;2023-03-13T03:22:09;12.67;;;3.27;;
16189;SDS011;41754;51.498;7.540;2023-03-13T03:24:37;13.47;;;3.03;;
16189;SDS011;41754;51.498;7.540;2023-03-13T03:27:05;17.30;;;3.22;;
16189;SDS011;41754;51.498;7.540;2023-03-13T03:29:39;10.53;;;3.07;;
16189;SDS011;41754;51.498;7.540;2023-03-13T03:32:09;6.50;;;2.70;;
16189;SDS011;41754;51.498;7.540;2023-03-13T03:34:36;9.83;;;2.80;;
16189;SDS011;41754;51.498;7.540;2023-03-13T03:37:05;6.83;;;3.03;;
16189;SDS011;41754;51.498;7.540;2023-03-13T03:39:33;9.70;;;3.40;;
16189;SDS011;41754;51.498;7.540;2023-03-13T03:42:03;6.77;;;2.57;;
16189;SDS011;41754;51.498;7.540;2023-03-13T03:44:32;9.17;;;2.60;;
16189;SDS011;41754;51.498;7.540;2023-03-13T03:46:59;9.23;;;2.73;;
16189;SDS011;41754;51.498;7.540;2023-03-13T03:49:33;10.37;;;2.63;;
16189;SDS011;41754;51.498;7.540;2023-03-13T03:52:01;7.80;;;2.47;;
16189;SDS011;41754;51.498;7.540;2023-03-13T03:54:34;8.50;;;2.57;;
16189;SDS011;41754;51.498;7.540;2023-03-13T03:57:02;7.27;;;2.77;;
16189;SDS011;41754;51.498;7.540;2023-03-13T03:59:30;7.77;;;2.33;;
16189;SDS011;41754;51.498;7.540;2023-03-13T04:02:02;6.80;;;2.30;;
16189;SDS011;41754;51.498;7.540;2023-03-13T04:04:31;7.10;;;1.90;;
16189;SDS011;41754;51.498;7.540;2023-03-13T04:07:05;5.78;;;1.73;;
16189;SDS011;41754;51.498;7.540;2023-03-13T04:09:34;5.55;;;1.85;;
16189;SDS011;41754;51.498;7.540;2023-03-13T04:12:04;4.63;;;1.45;;
16189;SDS011;41754;51.498;7.540;2023-03-13T04:14:37;4.85;;;1.50;;
16189;SDS011;41754;51.498;7.540;2023-03-13T04:17:07;5.32;;;2.13;;
16189;SDS011;41754;51.498;7.540;2023-03-13T04:19:36;6.20;;;2.13;;
16189;SDS011;41754;51.498;7.540;2023-03-13T04:22:05;4.30;;;1.90;;
16189;SDS011;41754;51.498;7.540;2023-03-13T04:24:33;4.18;;;1.90;;
16189;SDS011;41754;51.498;7.540;2023-03-13T04:27:01;6.38;;;1.90;;
16189;SDS011;41754;51.498;7.540;2023-03-13T04:29:31;3.38;;;1.92;;
16189;SDS011;41754;51.498;7.540;2023-03-13T04:32:19;3.43;;;1.50;;
16189;SDS011;41754;51.498;7.540;2023-03-13T04:35:00;5.33;;;2.37;;
16189;SDS011;41754;51.498;7.540;2023-03-13T04:37:34;2.83;;;1.42;;
16189;SDS011;41754;51.498;7.540;2023-03-13T04:40:21;4.07;;;1.40;;
16189;SDS011;41754;51.498;7.540;2023-03-13T04:42:54;3.90;;;1.55;;
16189;SDS011;41754;51.498;7.540;2023-03-13T04:45:41;5.07;;;1.60;;
16189;SDS011;41754;51.498;7.540;2023-03-13T04:51:58;2.57;;;1.50;;
16189;SDS011;41754;51.498;7.540;2023-03-13T04:54:50;3.13;;;1.30;;
16189;SDS011;41754;51.498;7.540;2023-03-13T04:57:37;1.38;;;1.10;;
16189;SDS011;41754;51.498;7.540;2023-03-13T05:00:26;5.25;;;1.88;;
16189;SDS011;41754;51.498;7.540;2023-03-13T05:03:11;5.25;;;2.00;;
16189;SDS011;41754;51.498;7.540;2023-03-13T05:05:59;3.70;;;1.60;;
16189;SDS011;41754;51.498;7.540;2023-03-13T05:08:55;4.57;;;1.63;;
16189;SDS011;41754;51.498;7.540;2023-03-13T05:11:41;3.88;;;1.58;;
16189;SDS011;41754;51.498;7.540;2023-03-13T05:14:35;3.17;;;1.23;;
16189;SDS011;41754;51.498;7.540;2023-03-13T05:17:21;3.05;;;1.70;;
16189;SDS011;41754;51.498;7.540;2023-03-13T05:19:56;2.33;;;1.45;;
16189;SDS011;41754;51.498;7.540;2023-03-13T05:22:42;2.88;;;1.58;;
16189;SDS011;41754;51.498;7.540;2023-03-13T05:25:20;3.33;;;2.10;;
16189;SDS011;41754;51.498;7.540;2023-03-13T05:28:24;2.50;;;1.40;;
16189;SDS011;41754;51.498;7.540;2023-03-13T05:31:27;3.50;;;1.70;;
16189;SDS011;41754;51.498;7.540;2023-03-13T05:33:54;1.52;;;1.40;;
16189;SDS011;41754;51.498;7.540;2023-03-13T05:36:41;2.33;;;1.40;;
16189;SDS011;41754;51.498;7.540;2023-03-13T05:39:31;4.38;;;1.52;;
16189;SDS011;41754;51.498;7.540;2023-03-13T05:42:20;3.58;;;1.67;;
16189;SDS011;41754;51.498;7.540;2023-03-13T05:45:07;1.35;;;1.23;;
16189;SDS011;41754;51.498;7.540;2023-03-13T05:47:54;2.25;;;1.67;;
16189;SDS011;41754;51.498;7.540;2023-03-13T05:50:36;1.88;;;1.48;;
16189;SDS011;41754;51.498;7.540;2023-03-13T05:53:24;4.18;;;1.88;;
16189;SDS011;41754;51.498;7.540;2023-03-13T05:56:12;2.90;;;1.48;;
16189;SDS011;41754;51.498;7.540;2023-03-13T05:58:49;4.88;;;2.45;;
16189;SDS011;41754;51.498;7.540;2023-03-13T06:01:43;3.65;;;2.03;;
16189;SDS011;41754;51.498;7.540;2023-03-13T06:04:24;2.88;;;1.90;;
16189;SDS011;41754;51.498;7.540;2023-03-13T06:06:52;3.40;;;2.00;;
16189;SDS011;41754;51.498;7.540;2023-03-13T06:09:20;2.42;;;1.92;;
16189;SDS011;41754;51.498;7.540;2023-03-13T06:11:49;2.13;;;1.75;;
16189;SDS011;41754;51.498;7.540;2023-03-13T06:14:19;2.45;;;2.03;;
16189;SDS011;41754;51.498;7.540;2023-03-13T06:17:16;2.97;;;1.90;;
16189;SDS011;41754;51.498;7.540;2023-03-13T06:19:45;4.10;;;1.95;;
16189;SDS011;41754;51.498;7.540;2023-03-13T06:22:13;3.53;;;1.80;;
16189;SDS011;41754;51.498;7.540;2023-03-13T06:24:42;3.47;;;2.10;;
16189;SDS011;41754;51.498;7.540;2023-03-13T06:27:12;2.92;;;1.90;;
16189;SDS011;41754;51.498;7.540;2023-03-13T06:29:41;3.08;;;1.85;;
16189;SDS011;41754;51.498;7.540;2023-03-13T06:32:09;2.03;;;1.83;;
16189;SDS011;41754;51.498;7.540;2023-03-13T06:34:37;2.05;;;1.83;;
16189;SDS011;41754;51.498;7.540;2023-03-13T06:37:04;2.85;;;1.90;;
16189;SDS011;41754;51.498;7.540;2023-03-13T06:39:32;4.90;;;1.88;;
16189;SDS011;41754;51.498;7.540;2023-03-13T06:42:00;3.90;;;2.10;;
16189;SDS011;41754;51.498;7.540;2023-03-13T06:44:28;2.90;;;2.20;;
16189;SDS011;41754;51.498;7.540;2023-03-13T06:46:57;2.47;;;1.92;;
16189;SDS011;41754;51.498;7.540;2023-03-13T06:49:25;2.78;;;2.00;;
16189;SDS011;41754;51.498;7.540;2023-03-13T06:51:53;2.40;;;2.20;;
16189;SDS011;41754;51.498;7.540;2023-03-13T06:54:23;1.70;;;1.60;;
16189;SDS011;41754;51.498;7.540;2023-03-13T06:56:51;2.58;;;1.65;;
16189;SDS011;41754;51.498;7.540;2023-03-13T06:59:19;1.63;;;1.52;;
16189;SDS011;41754;51.498;7.540;2023-03-13T07:01:46;3.47;;;1.65;;
16189;SDS011;41754;51.498;7.540;2023-03-13T07:04:16;4.25;;;1.55;;
16189;SDS011;41754;51.498;7.540;2023-03-13T07:06:44;3.67;;;1.70;;
16189;SDS011;41754;51.498;7.540;2023-03-13T07:09:11;2.28;;;1.40;;
16189;SDS011;41754;51.498;7.540;2023-03-13T07:11:39;2.75;;;1.30;;
16189;SDS011;41754;51.498;7.540;2023-03-13T07:14:07;2.03;;;1.60;;
16189;SDS011;41754;51.498;7.540;2023-03-13T07:16:43;2.70;;;1.25;;
16189;SDS011;41754;51.498;7.540;2023-03-13T07:19:11;1.73;;;1.20;;
16189;SDS011;41754;51.498;7.540;2023-03-13T07:21:41;2.47;;;1.45;;
16189;SDS011;41754;51.498;7.540;2023-03-13T07:24:09;2.33;;;1.38;;
16189;SDS011;41754;51.498;7.540;2023-03-13T07:26:37;2.00;;;1.27;;
16189;SDS011;41754;51.498;7.540;2023-03-13T07:29:13;1.83;;;1.15;;
16189;SDS011;41754;51.498;7.540;2023-03-13T07:31:41;2.25;;;1.30;;
16189;SDS011;41754;51.498;7.540;2023-03-13T07:34:09;2.60;;;1.40;;
16189;SDS011;41754;51.498;7.540;2023-03-13T07:36:37;2.13;;;1.40;;
16189;SDS011;41754;51.498;7.540;2023-03-13T07:39:08;2.53;;;1.75;;
16189;SDS011;41754;51.498;7.540;2023-03-13T07:41:36;3.22;;;1.30;;
16189;SDS011;41754;51.498;7.540;2023-03-13T07:44:05;4.78;;;1.65;;
16189;SDS011;41754;51.498;7.540;2023-03-13T07:46:33;2.55;;;1.30;;
16189;SDS011;41754;51.498;7.540;2023-03-13T07:49:01;2.67;;;1.15;;
16189;SDS011;41754;51.498;7.540;2023-03-13T07:51:29;2.40;;;1.60;;
16189;SDS011;41754;51.498;7.540;2023-03-13T07:54:10;1.88;;;1.17;;
16189;SDS011;41754;51.498;7.540;2023-03-13T07:56:38;2.65;;;1.60;;
16189;SDS011;41754;51.498;7.540;2023-03-13T07:59:06;2.05;;;1.27;;
16189;SDS011;41754;51.498;7.540;2023-03-13T08:01:34;3.17;;;1.60;;
16189;SDS011;41754;51.498;7.540;2023-03-13T08:04:02;2.42;;;1.80;;
16189;SDS011;41754;51.498;7.540;2023-03-13T08:06:31;1.90;;;1.38;;
16189;SDS011;41754;51.498;7.540;2023-03-13T08:09:01;3.22;;;1.75;;
16189;SDS011;41754;51.498;7.540;2023-03-13T08:11:31;4.03;;;1.67;;
16189;SDS011;41754;51.498;7.540;2023-03-13T08:13:59;2.50;;;1.48;;
16189;SDS011;41754;51.498;7.540;2023-03-13T08:16:28;2.20;;;1.35;;
16189;SDS011;41754;51.498;7.540;2023-03-13T08:18:57;4.55;;;1.65;;
16189;SDS011;41754;51.498;7.540;2023-03-13T08:21:26;4.22;;;1.58;;
16189;SDS011;41754;51.498;7.540;2023-03-13T08:23:56;5.03;;;1.67;;
16189;SDS011;41754;51.498;7.540;2023-03-13T08:26:26;2.30;;;1.60;;
16189;SDS011;41754;51.498;7.540;2023-03-13T08:28:57;3.03;;;1.55;;
16189;SDS011;41754;51.498;7.540;2023-03-13T08:31:27;2.50;;;1.60;;
16189;SDS011;41754;51.498;7.540;2023-03-13T08:33:56;2.35;;;1.63;;
16189;SDS011;41754;51.498;7.540;2023-03-13T08:36:25;2.67;;;1.40;;
16189;SDS011;41754;51.498;7.540;2023-03-13T08:38:58;2.60;;;1.58;;
16189;SDS011;41754;51.498;7.540;2023-03-13T08:41:27;2.95;;;2.00;;
16189;SDS011;41754;51.498;7.540;2023-03-13T08:43:59;4.97;;;1.77;;
16189;SDS011;41754;51.498;7.540;2023-03-13T08:46:27;5.88;;;1.92;;
16189;SDS011;41754;51.498;7.540;2023-03-13T08:48:56;3.75;;;1.55;;
16189;SDS011;41754;51.498;7.540;2023-03-13T08:51:25;4.35;;;1.88;;
16189;SDS011;41754;51.498;7.540;2023-03-13T08:53:54;4.55;;;1.98;;
16189;SDS011;41754;51.498;7.540;2023-03-13T08:56:23;5.53;;;1.70;;
16189;SDS011;41754;51.498;7.540;2023-03-13T08:58:53;4.00;;;1.83;;
16189;SDS011;41754;51.498;7.540;2023-03-13T09:01:24;4.60;;;2.45;;
16189;SDS011;41754;51.498;7.540;2023-03-13T09:03:53;2.72;;;1.50;;
16189;SDS011;41754;51.498;7.540;2023-03-13T09:06:21;3.55;;;1.90;;
16189;SDS011;41754;51.498;7.540;2023-03-13T09:08:49;4.60;;;1.92;;
16189;SDS011;41754;51.498;7.540;2023-03-13T09:11:17;4.60;;;1.83;;
16189;SDS011;41754;51.498;7.540;2023-03-13T09:13:47;6.85;;;2.40;;
16189;SDS011;41754;51.498;7.540;2023-03-13T09:16:17;4.32;;;2.58;;
16189;SDS011;41754;51.498;7.540;2023-03-13T09:18:48;4.72;;;2.13;;
16189;SDS011;41754;51.498;7.540;2023-03-13T09:21:17;4.88;;;2.00;;
16189;SDS011;41754;51.498;7.540;2023-03-13T09:23:46;6.00;;;2.30;;
16189;SDS011;41754;51.498;7.540;2023-03-13T09:26:14;4.82;;;2.13;;
16189;SDS011;41754;51.498;7.540;2023-03-13T09:28:43;3.92;;;1.98;;
16189;SDS011;41754;51.498;7.540;2023-03-13T09:31:11;4.93;;;1.95;;
16189;SDS011;41754;51.498;7.540;2023-03-13T09:33:41;5.00;;;2.15;;
16189;SDS011;41754;51.498;7.540;2023-03-13T09:36:11;8.85;;;2.20;;
16189;SDS011;41754;51.498;7.540;2023-03-13T09:38:39;4.85;;;1.90;;
16189;SDS011;41754;51.498;7.540;2023-03-13T09:41:13;5.03;;;1.90;;
16189;SDS011;41754;51.498;7.540;2023-03-13T09:44:00;4.13;;;2.28;;
16189;SDS011;41754;51.498;7.540;2023-03-13T09:46:34;7.93;;;2.33;;
16189;SDS011;41754;51.498;7.540;2023-03-13T09:49:08;4.97;;;2.50;;
16189;SDS011;41754;51.498;7.540;2023-03-13T09:51:45;5.63;;;2.15;;
16189;SDS011;41754;51.498;7.540;2023-03-13T09:54:21;4.47;;;2.40;;
16189;SDS011;41754;51.498;7.540;2023-03-13T09:56:52;4.65;;;2.05;;
16189;SDS011;41754;51.498;7.540;2023-03-13T09:59:26;4.72;;;2.00;;
16189;SDS011;41754;51.498;7.540;2023-03-13T10:01:59;4.05;;;1.80;;
16189;SDS011;41754;51.498;7.540;2023-03-13T10:04:31;4.38;;;2.20;;
16189;SDS011;41754;51.498;7.540;2023-03-13T10:07:10;3.20;;;2.20;;
16189;SDS011;41754;51.498;7.540;2023-03-13T10:09:39;7.30;;;2.38;;
16189;SDS011;41754;51.498;7.540;2023-03-13T10:12:11;5.22;;;2.00;;
16189;SDS011;41754;51.498;7.540;2023-03-13T10:14:44;4.45;;;2.08;;
16189;SDS011;41754;51.498;7.540;2023-03-13T10:17:21;4.10;;;1.70;;
16189;SDS011;41754;51.498;7.540;2023-03-13T10:19:58;2.28;;;1.60;;
16189;SDS011;41754;51.498;7.540;2023-03-13T10:22:35;3.20;;;2.05;;
16189;SDS011;41754;51.498;7.540;2023-03-13T10:25:05;4.68;;;2.15;;
16189;SDS011;41754;51.498;7.540;2023-03-13T10:27:42;3.40;;;1.88;;
16189;SDS011;41754;51.498;7.540;2023-03-13T10:30:16;3.10;;;2.17;;
16189;SDS011;41754;51.498;7.540;2023-03-13T10:32:49;4.03;;;1.90;;
16189;SDS011;41754;51.498;7.540;2023-03-13T10:35:21;3.60;;;2.15;;
16189;SDS011;41754;51.498;7.540;2023-03-13T10:38:00;2.10;;;1.30;;
16189;SDS011;41754;51.498;7.540;2023-03-13T10:40:30;3.13;;;1.67;;
16189;SDS011;41754;51.498;7.540;2023-03-13T10:43:02;3.65;;;1.40;;
16189;SDS011;41754;51.498;7.540;2023-03-13T10:45:33;2.92;;;1.58;;
16189;SDS011;41754;51.498;7.540;2023-03-13T10:48:03;1.98;;;1.20;;
16189;SDS011;41754;51.498;7.540;2023-03-13T10:50:40;3.83;;;1.30;;
16189;SDS011;41754;51.498;7.540;2023-03-13T10:53:20;3.28;;;1.40;;
16189;SDS011;41754;51.498;7.540;2023-03-13T10:55:53;3.25;;;1.20;;
16189;SDS011;41754;51.498;7.540;2023-03-13T10:58:26;2.67;;;1.20;;
16189;SDS011;41754;51.498;7.540;2023-03-13T11:01:09;1.40;;;1.10;;
16189;SDS011;41754;51.498;7.540;2023-03-13T11:03:43;2.28;;;1.00;;
16189;SDS011;41754;51.498;7.540;2023-03-13T11:06:28;4.18;;;1.65;;
16189;SDS011;41754;51.498;7.540;2023-03-13T11:09:09;3.65;;;1.05;;
16189;SDS011;41754;51.498;7.540;2023-03-13T11:11:43;2.83;;;1.00;;
16189;SDS011;41754;51.498;7.540;2023-03-13T11:14:16;1.10;;;1.00;;
16189;SDS011;41754;51.498;7.540;2023-03-13T11:16:46;2.83;;;1.10;;
16189;SDS011;41754;51.498;7.540;2023-03-13T11:19:27;4.68;;;1.02;;
16189;SDS011;41754;51.498;7.540;2023-03-13T11:22:02;2.05;;;0.82;;
16189;SDS011;41754;51.498;7.540;2023-03-13T11:24:45;2.40;;;0.95;;
16189;SDS011;41754;51.498;7.540;2023-03-13T11:27:22;0.95;;;0.80;;
16189;SDS011;41754;51.498;7.540;2023-03-13T11:30:00;1.50;;;0.70;;
16189;SDS011;41754;51.498;7.540;2023-03-13T11:32:41;1.73;;;0.73;;
16189;SDS011;41754;51.498;7.540;2023-03-13T11:35:17;1.38;;;0.90;;
16189;SDS011;41754;51.498;7.540;2023-03-13T11:37:54;2.45;;;0.90;;
16189;SDS011;41754;51.498;7.540;2023-03-13T11:40:26;0.90;;;0.70;;
16189;SDS011;41754;51.498;7.540;2023-03-13T11:43:10;2.72;;;1.00;;
16189;SDS011;41754;51.498;7.540;2023-03-13T11:45:55;1.92;;;1.05;;
16189;SDS011;41754;51.498;7.540;2023-03-13T11:48:38;1.75;;;1.00;;
16189;SDS011;41754;51.498;7.540;2023-03-13T11:51:23;1.90;;;1.00;;
16189;SDS011;41754;51.498;7.540;2023-03-13T11:54:01;3.08;;;1.00;;
16189;SDS011;41754;51.498;7.540;2023-03-13T11:56:44;2.20;;;0.70;;
16189;SDS011;41754;51.498;7.540;2023-03-13T11:59:21;1.02;;;0.73;;
16189;SDS011;41754;51.498;7.540;2023-03-13T12:01:59;1.70;;;0.70;;
16189;SDS011;41754;51.498;7.540;2023-03-13T12:04:34;1.15;;;0.60;;
16189;SDS011;41754;51.498;7.540;2023-03-13T12:07:17;1.60;;;0.95;;
16189;SDS011;41754;51.498;7.540;2023-03-13T12:09:52;1.08;;;0.70;;
16189;SDS011;41754;51.498;7.540;2023-03-13T12:12:26;1.42;;;0.80;;
16189;SDS011;41754;51.498;7.540;2023-03-13T12:15:06;0.90;;;0.60;;
16189;SDS011;41754;51.498;7.540;2023-03-13T12:17:47;1.75;;;1.17;;
16189;SDS011;41754;51.498;7.540;2023-03-13T12:20:21;0.55;;;0.50;;
16189;SDS011;41754;51.498;7.540;2023-03-13T12:22:54;1.20;;;0.65;;
16189;SDS011;41754;51.498;7.540;2023-03-13T12:25:27;1.55;;;0.70;;
16189;SDS011;41754;51.498;7.540;2023-03-13T12:28:02;1.35;;;0.57;;
16189;SDS011;41754;51.498;7.540;2023-03-13T12:30:38;1.88;;;0.68;;
16189;SDS011;41754;51.498;7.540;2023-03-13T12:33:13;3.63;;;0.90;;
16189;SDS011;41754;51.498;7.540;2023-03-13T12:35:51;1.83;;;0.70;;
16189;SDS011;41754;51.498;7.540;2023-03-13T12:38:24;1.48;;;0.68;;
16189;SDS011;41754;51.498;7.540;2023-03-13T12:41:00;1.90;;;0.65;;
16189;SDS011;41754;51.498;7.540;2023-03-13T12:43:39;1.92;;;0.60;;
16189;SDS011;41754;51.498;7.540;2023-03-13T12:46:36;0.82;;;0.60;;
16189;SDS011;41754;51.498;7.540;2023-03-13T12:49:12;0.93;;;0.63;;
16189;SDS011;41754;51.498;7.540;2023-03-13T12:51:59;1.98;;;0.70;;
16189;SDS011;41754;51.498;7.540;2023-03-13T12:54:41;2.38;;;0.63;;
16189;SDS011;41754;51.498;7.540;2023-03-13T12:57:47;2.95;;;0.80;;
16189;SDS011;41754;51.498;7.540;2023-03-13T13:00:33;0.77;;;0.77;;
16189;SDS011;41754;51.498;7.540;2023-03-13T13:03:08;1.45;;;0.65;;
16189;SDS011;41754;51.498;7.540;2023-03-13T13:05:57;1.58;;;0.60;;
16189;SDS011;41754;51.498;7.540;2023-03-13T13:08:30;3.00;;;0.73;;
16189;SDS011;41754;51.498;7.540;2023-03-13T13:17:30;1.27;;;0.52;;
16189;SDS011;41754;51.498;7.540;2023-03-13T13:32:37;3.00;;;0.70;;
16189;SDS011;41754;51.498;7.540;2023-03-13T13:41:21;0.40;;;0.40;;
16189;SDS011;41754;51.498;7.540;2023-03-13T13:46:51;0.60;;;0.60;;
16189;SDS011;41754;51.498;7.540;2023-03-13T13:49:22;0.95;;;0.68;;
16189;SDS011;41754;51.498;7.540;2023-03-13T13:55:02;3.15;;;0.80;;
16189;SDS011;41754;51.498;7.540;2023-03-13T13:57:45;1.90;;;0.65;;
16189;SDS011;41754;51.498;7.540;2023-03-13T14:00:17;1.75;;;0.60;;
16189;SDS011;41754;51.498;7.540;2023-03-13T14:02:48;1.25;;;0.57;;
16189;SDS011;41754;51.498;7.540;2023-03-13T14:05:20;1.83;;;0.60;;
16189;SDS011;41754;51.498;7.540;2023-03-13T14:07:56;1.48;;;0.32;;
16189;SDS011;41754;51.498;7.540;2023-03-13T14:10:31;1.45;;;0.60;;
16189;SDS011;41754;51.498;7.540;2023-03-13T14:13:09;2.22;;;0.65;;
16189;SDS011;41754;51.498;7.540;2023-03-13T14:15:43;1.05;;;0.70;;
16189;SDS011;41754;51.498;7.540;2023-03-13T14:18:14;2.03;;;0.90;;
16189;SDS011;41754;51.498;7.540;2023-03-13T14:20:52;1.90;;;0.60;;
16189;SDS011;41754;51.498;7.540;2023-03-13T14:23:28;1.45;;;0.73;;
16189;SDS011;41754;51.498;7.540;2023-03-13T14:26:07;1.02;;;0.80;;
16189;SDS011;41754;51.498;7.540;2023-03-13T14:28:37;0.95;;;0.68;;
16189;SDS011;41754;51.498;7.540;2023-03-13T14:31:06;2.38;;;0.70;;
16189;SDS011;41754;51.498;7.540;2023-03-13T14:33:35;2.55;;;0.90;;
16189;SDS011;41754;51.498;7.540;2023-03-13T14:36:04;1.35;;;0.68;;
16189;SDS011;41754;51.498;7.540;2023-03-13T14:38:32;0.73;;;0.73;;
16189;SDS011;41754;51.498;7.540;2023-03-13T14:41:00;1.52;;;0.75;;
16189;SDS011;41754;51.498;7.540;2023-03-13T14:43:30;2.50;;;0.70;;
16189;SDS011;41754;51.498;7.540;2023-03-13T14:46:11;2.45;;;0.73;;
16189;SDS011;41754;51.498;7.540;2023-03-13T14:48:41;1.55;;;0.90;;
16189;SDS011;41754;51.498;7.540;2023-03-13T14:51:14;1.65;;;0.40;;
16189;SDS011;41754;51.498;7.540;2023-03-13T14:53:54;1.75;;;0.40;;
16189;SDS011;41754;51.498;7.540;2023-03-13T14:56:30;0.50;;;0.45;;
16189;SDS011;41754;51.498;7.540;2023-03-13T14:59:07;0.85;;;0.60;;
16189;SDS011;41754;51.498;7.540;2023-03-13T15:01:41;2.70;;;0.80;;
16189;SDS011;41754;51.498;7.540;2023-03-13T15:04:09;0.70;;;0.60;;
16189;SDS011;41754;51.498;7.540;2023-03-13T15:06:39;1.27;;;0.70;;
16189;SDS011;41754;51.498;7.540;2023-03-13T15:09:14;1.08;;;0.65;;
16189;SDS011;41754;51.498;7.540;2023-03-13T15:11:51;0.50;;;0.50;;
16189;SDS011;41754;51.498;7.540;2023-03-13T15:14:32;1.60;;;0.70;;
16189;SDS011;41754;51.498;7.540;2023-03-13T15:17:14;0.95;;;0.68;;
16189;SDS011;41754;51.498;7.540;2023-03-13T15:19:47;0.75;;;0.75;;
16189;SDS011;41754;51.498;7.540;2023-03-13T15:22:19;1.52;;;0.80;;
16189;SDS011;41754;51.498;7.540;2023-03-13T15:24:52;1.30;;;0.85;;
16189;SDS011;41754;51.498;7.540;2023-03-13T15:27:31;1.25;;;0.95;;
16189;SDS011;41754;51.498;7.540;2023-03-13T15:29:59;2.15;;;0.80;;
16189;SDS011;41754;51.498;7.540;2023-03-13T15:32:28;0.73;;;0.52;;
16189;SDS011;41754;51.498;7.540;2023-03-13T15:34:57;0.95;;;0.80;;
16189;SDS011;41754;51.498;7.540;2023-03-13T15:37:28;2.05;;;0.95;;
16189;SDS011;41754;51.498;7.540;2023-03-13T15:39:57;2.05;;;1.10;;
16189;SDS011;41754;51.498;7.540;2023-03-13T15:42:25;1.35;;;0.65;;
16189;SDS011;41754;51.498;7.540;2023-03-13T15:44:52;1.85;;;0.80;;
16189;SDS011;41754;51.498;7.540;2023-03-13T15:47:20;3.25;;;0.65;;
16189;SDS011;41754;51.498;7.540;2023-03-13T15:49:48;3.08;;;1.00;;
16189;SDS011;41754;51.498;7.540;2023-03-13T15:52:17;1.95;;;1.00;;
16189;SDS011;41754;51.498;7.540;2023-03-13T15:54:49;2.05;;;0.98;;
16189;SDS011;41754;51.498;7.540;2023-03-13T15:57:19;3.10;;;0.90;;